sensor_id;sensor_type;location;lat;lon;timestamp;P1;durP1;ratioP1;P2;durP2;ratioP2
74335;SDS011;62755;-33.398;-70.572;2023-03-23T00:01:20;10.20;;;4.35;;
74335;SDS011;62755;-33.398;-70.572;2023-03-23T00:04:12;16.70;;;4.45;;
74335;SDS011;62755;-33.398;-70.572;2023-03-23T00:07:01;16.73;;;4.50;;
74335;SDS011;62755;-33.398;-70.572;2023-03-23T00:09:51;17.38;;;4.93;;
74335;SDS011;62755;-33.398;-70.572;2023-03-23T00:12:40;18.15;;;4.80;;
74335;SDS011;62755;-33.398;-70.572;2023-03-23T00:15:30;26.23;;;9.82;;
74335;SDS011;62755;-33.398;-70.572;2023-03-23T00:18:23;30.40;;;9.20;;
74335;SDS011;62755;-33.398;-70.572;2023-03-23T00:21:13;26.88;;;11.40;;
74335;SDS011;62755;-33.398;-70.572;2023-03-23T00:24:03;20.83;;;7.18;;
74335;SDS011;62755;-33.398;-70.572;2023-03-23T00:26:55;22.63;;;7.53;;
74335;SDS011;62755;-33.398;-70.572;2023-03-23T00:29:44;24.60;;;7.45;;
74335;SDS011;62755;-33.398;-70.572;2023-03-23T00:32:33;19.30;;;5.55;;
74335;SDS011;62755;-33.398;-70.572;2023-03-23T00:35:24;23.23;;;6.60;;
74335;SDS011;62755;-33.398;-70.572;2023-03-23T00:38:14;16.70;;;5.20;;
74335;SDS011;62755;-33.398;-70.572;2023-03-23T00:41:04;17.13;;;5.10;;
74335;SDS011;62755;-33.398;-70.572;2023-03-23T00:43:54;20.30;;;7.68;;
74335;SDS011;62755;-33.398;-70.572;2023-03-23T00:46:46;24.83;;;5.50;;
74335;SDS011;62755;-33.398;-70.572;2023-03-23T00:49:37;14.48;;;5.65;;
74335;SDS011;62755;-33.398;-70.572;2023-03-23T00:52:28;18.83;;;4.97;;
74335;SDS011;62755;-33.398;-70.572;2023-03-23T00:55:17;17.73;;;5.78;;
74335;SDS011;62755;-33.398;-70.572;2023-03-23T00:58:07;18.15;;;6.70;;
74335;SDS011;62755;-33.398;-70.572;2023-03-23T01:00:56;28.83;;;7.32;;
74335;SDS011;62755;-33.398;-70.572;2023-03-23T01:03:51;28.30;;;5.80;;
74335;SDS011;62755;-33.398;-70.572;2023-03-23T01:06:47;23.38;;;6.03;;
74335;SDS011;62755;-33.398;-70.572;2023-03-23T01:09:40;18.95;;;6.30;;
74335;SDS011;62755;-33.398;-70.572;2023-03-23T01:12:30;30.23;;;5.90;;
74335;SDS011;62755;-33.398;-70.572;2023-03-23T01:15:20;25.70;;;6.35;;
74335;SDS011;62755;-33.398;-70.572;2023-03-23T01:18:09;22.25;;;6.28;;
74335;SDS011;62755;-33.398;-70.572;2023-03-23T01:21:02;22.73;;;6.13;;
74335;SDS011;62755;-33.398;-70.572;2023-03-23T01:23:52;20.67;;;6.00;;
74335;SDS011;62755;-33.398;-70.572;2023-03-23T01:26:44;18.63;;;6.53;;
74335;SDS011;62755;-33.398;-70.572;2023-03-23T01:29:33;19.83;;;4.93;;
74335;SDS011;62755;-33.398;-70.572;2023-03-23T01:32:23;23.10;;;5.88;;
74335;SDS011;62755;-33.398;-70.572;2023-03-23T01:35:12;19.02;;;6.55;;
74335;SDS011;62755;-33.398;-70.572;2023-03-23T01:38:01;19.40;;;5.80;;
74335;SDS011;62755;-33.398;-70.572;2023-03-23T01:40:51;21.58;;;4.90;;
74335;SDS011;62755;-33.398;-70.572;2023-03-23T01:43:55;23.10;;;4.80;;
74335;SDS011;62755;-33.398;-70.572;2023-03-23T01:46:47;21.35;;;5.63;;
74335;SDS011;62755;-33.398;-70.572;2023-03-23T01:49:37;21.60;;;5.38;;
74335;SDS011;62755;-33.398;-70.572;2023-03-23T01:52:29;24.38;;;6.53;;
74335;SDS011;62755;-33.398;-70.572;2023-03-23T01:55:19;23.38;;;6.93;;
74335;SDS011;62755;-33.398;-70.572;2023-03-23T01:58:10;20.77;;;6.60;;
74335;SDS011;62755;-33.398;-70.572;2023-03-23T02:01:03;28.83;;;6.75;;
74335;SDS011;62755;-33.398;-70.572;2023-03-23T02:03:54;25.60;;;7.20;;
74335;SDS011;62755;-33.398;-70.572;2023-03-23T02:06:45;32.28;;;7.18;;
74335;SDS011;62755;-33.398;-70.572;2023-03-23T02:09:34;26.15;;;7.53;;
74335;SDS011;62755;-33.398;-70.572;2023-03-23T02:12:24;28.90;;;6.60;;
74335;SDS011;62755;-33.398;-70.572;2023-03-23T02:15:13;31.52;;;8.30;;
74335;SDS011;62755;-33.398;-70.572;2023-03-23T02:18:06;15.70;;;6.15;;
74335;SDS011;62755;-33.398;-70.572;2023-03-23T02:21:16;24.95;;;5.78;;
74335;SDS011;62755;-33.398;-70.572;2023-03-23T02:27:45;19.35;;;5.22;;
74335;SDS011;62755;-33.398;-70.572;2023-03-23T02:31:06;20.92;;;4.57;;
74335;SDS011;62755;-33.398;-70.572;2023-03-23T02:34:11;25.42;;;5.25;;
74335;SDS011;62755;-33.398;-70.572;2023-03-23T02:37:07;20.00;;;4.60;;
74335;SDS011;62755;-33.398;-70.572;2023-03-23T02:40:02;26.10;;;5.70;;
74335;SDS011;62755;-33.398;-70.572;2023-03-23T02:42:59;28.95;;;4.60;;
74335;SDS011;62755;-33.398;-70.572;2023-03-23T02:45:50;20.98;;;4.18;;
74335;SDS011;62755;-33.398;-70.572;2023-03-23T02:48:41;21.08;;;4.45;;
74335;SDS011;62755;-33.398;-70.572;2023-03-23T02:51:35;23.65;;;4.75;;
74335;SDS011;62755;-33.398;-70.572;2023-03-23T02:54:26;21.55;;;3.85;;
74335;SDS011;62755;-33.398;-70.572;2023-03-23T02:57:16;25.27;;;4.72;;
74335;SDS011;62755;-33.398;-70.572;2023-03-23T03:00:06;19.25;;;4.35;;
74335;SDS011;62755;-33.398;-70.572;2023-03-23T03:02:59;10.57;;;4.18;;
74335;SDS011;62755;-33.398;-70.572;2023-03-23T03:05:52;25.85;;;4.03;;
74335;SDS011;62755;-33.398;-70.572;2023-03-23T03:08:52;13.48;;;3.97;;
74335;SDS011;62755;-33.398;-70.572;2023-03-23T03:11:51;13.52;;;5.60;;
74335;SDS011;62755;-33.398;-70.572;2023-03-23T03:14:47;14.77;;;4.35;;
74335;SDS011;62755;-33.398;-70.572;2023-03-23T03:17:42;21.00;;;7.30;;
74335;SDS011;62755;-33.398;-70.572;2023-03-23T03:20:40;22.40;;;5.70;;
74335;SDS011;62755;-33.398;-70.572;2023-03-23T03:23:33;34.40;;;6.68;;
74335;SDS011;62755;-33.398;-70.572;2023-03-23T03:26:29;17.95;;;2.75;;
74335;SDS011;62755;-33.398;-70.572;2023-03-23T03:29:20;21.50;;;3.80;;
74335;SDS011;62755;-33.398;-70.572;2023-03-23T03:32:14;8.60;;;2.75;;
74335;SDS011;62755;-33.398;-70.572;2023-03-23T03:35:06;20.23;;;2.72;;
74335;SDS011;62755;-33.398;-70.572;2023-03-23T03:37:56;12.82;;;3.33;;
74335;SDS011;62755;-33.398;-70.572;2023-03-23T03:40:52;18.83;;;3.42;;
74335;SDS011;62755;-33.398;-70.572;2023-03-23T03:43:45;12.45;;;3.25;;
74335;SDS011;62755;-33.398;-70.572;2023-03-23T03:46:34;9.75;;;4.82;;
74335;SDS011;62755;-33.398;-70.572;2023-03-23T03:49:24;11.00;;;3.40;;
74335;SDS011;62755;-33.398;-70.572;2023-03-23T03:52:14;18.90;;;4.07;;
74335;SDS011;62755;-33.398;-70.572;2023-03-23T03:55:04;11.70;;;4.32;;
74335;SDS011;62755;-33.398;-70.572;2023-03-23T03:57:54;13.60;;;4.85;;
74335;SDS011;62755;-33.398;-70.572;2023-03-23T04:00:45;13.63;;;3.42;;
74335;SDS011;62755;-33.398;-70.572;2023-03-23T04:03:35;14.80;;;3.33;;
74335;SDS011;62755;-33.398;-70.572;2023-03-23T04:06:25;12.02;;;4.45;;
74335;SDS011;62755;-33.398;-70.572;2023-03-23T04:09:14;17.23;;;4.32;;
74335;SDS011;62755;-33.398;-70.572;2023-03-23T04:12:05;17.58;;;3.90;;
74335;SDS011;62755;-33.398;-70.572;2023-03-23T04:14:54;13.38;;;3.13;;
74335;SDS011;62755;-33.398;-70.572;2023-03-23T04:17:45;10.77;;;3.67;;
74335;SDS011;62755;-33.398;-70.572;2023-03-23T04:20:36;20.73;;;4.00;;
74335;SDS011;62755;-33.398;-70.572;2023-03-23T04:23:26;17.48;;;3.50;;
74335;SDS011;62755;-33.398;-70.572;2023-03-23T04:26:17;14.20;;;3.28;;
74335;SDS011;62755;-33.398;-70.572;2023-03-23T04:29:06;13.77;;;3.55;;
74335;SDS011;62755;-33.398;-70.572;2023-03-23T04:31:55;15.63;;;3.55;;
74335;SDS011;62755;-33.398;-70.572;2023-03-23T04:34:48;9.20;;;3.00;;
74335;SDS011;62755;-33.398;-70.572;2023-03-23T04:37:38;16.33;;;3.60;;
74335;SDS011;62755;-33.398;-70.572;2023-03-23T04:40:28;14.07;;;3.80;;
74335;SDS011;62755;-33.398;-70.572;2023-03-23T04:43:17;11.10;;;3.53;;
74335;SDS011;62755;-33.398;-70.572;2023-03-23T04:46:07;12.55;;;3.05;;
74335;SDS011;62755;-33.398;-70.572;2023-03-23T04:48:56;10.30;;;3.65;;
74335;SDS011;62755;-33.398;-70.572;2023-03-23T04:51:49;19.27;;;3.45;;
74335;SDS011;62755;-33.398;-70.572;2023-03-23T04:54:39;9.60;;;3.33;;
74335;SDS011;62755;-33.398;-70.572;2023-03-23T04:57:29;10.45;;;3.38;;
74335;SDS011;62755;-33.398;-70.572;2023-03-23T05:00:19;10.02;;;3.13;;
74335;SDS011;62755;-33.398;-70.572;2023-03-23T05:03:08;15.65;;;3.85;;
74335;SDS011;62755;-33.398;-70.572;2023-03-23T05:06:02;12.45;;;3.05;;
74335;SDS011;62755;-33.398;-70.572;2023-03-23T05:08:54;9.30;;;2.97;;
74335;SDS011;62755;-33.398;-70.572;2023-03-23T05:11:43;13.77;;;3.38;;
74335;SDS011;62755;-33.398;-70.572;2023-03-23T05:14:32;13.00;;;3.22;;
74335;SDS011;62755;-33.398;-70.572;2023-03-23T05:17:22;8.10;;;3.03;;
74335;SDS011;62755;-33.398;-70.572;2023-03-23T05:20:11;12.07;;;2.85;;
74335;SDS011;62755;-33.398;-70.572;2023-03-23T05:23:05;16.55;;;3.33;;
74335;SDS011;62755;-33.398;-70.572;2023-03-23T05:25:57;15.98;;;2.80;;
74335;SDS011;62755;-33.398;-70.572;2023-03-23T05:28:48;13.20;;;3.13;;
74335;SDS011;62755;-33.398;-70.572;2023-03-23T05:31:39;10.80;;;2.85;;
74335;SDS011;62755;-33.398;-70.572;2023-03-23T05:34:28;14.00;;;2.70;;
74335;SDS011;62755;-33.398;-70.572;2023-03-23T05:37:18;20.92;;;3.20;;
74335;SDS011;62755;-33.398;-70.572;2023-03-23T05:40:08;7.60;;;2.80;;
74335;SDS011;62755;-33.398;-70.572;2023-03-23T05:42:59;17.60;;;3.00;;
74335;SDS011;62755;-33.398;-70.572;2023-03-23T05:45:49;14.75;;;2.88;;
74335;SDS011;62755;-33.398;-70.572;2023-03-23T05:48:38;18.52;;;3.50;;
74335;SDS011;62755;-33.398;-70.572;2023-03-23T05:51:27;15.57;;;3.40;;
74335;SDS011;62755;-33.398;-70.572;2023-03-23T05:54:16;10.77;;;2.83;;
74335;SDS011;62755;-33.398;-70.572;2023-03-23T05:57:06;9.40;;;2.60;;
74335;SDS011;62755;-33.398;-70.572;2023-03-23T05:59:57;14.35;;;2.78;;
74335;SDS011;62755;-33.398;-70.572;2023-03-23T06:02:54;11.80;;;2.60;;
74335;SDS011;62755;-33.398;-70.572;2023-03-23T06:05:44;14.98;;;2.53;;
74335;SDS011;62755;-33.398;-70.572;2023-03-23T06:08:33;8.50;;;2.90;;
74335;SDS011;62755;-33.398;-70.572;2023-03-23T06:11:23;16.85;;;2.90;;
74335;SDS011;62755;-33.398;-70.572;2023-03-23T06:14:13;10.75;;;2.83;;
74335;SDS011;62755;-33.398;-70.572;2023-03-23T06:17:04;13.35;;;2.58;;
74335;SDS011;62755;-33.398;-70.572;2023-03-23T06:19:54;14.23;;;2.20;;
74335;SDS011;62755;-33.398;-70.572;2023-03-23T06:22:43;11.90;;;2.42;;
74335;SDS011;62755;-33.398;-70.572;2023-03-23T06:25:33;15.05;;;2.80;;
74335;SDS011;62755;-33.398;-70.572;2023-03-23T06:28:22;15.07;;;2.40;;
74335;SDS011;62755;-33.398;-70.572;2023-03-23T06:31:12;8.45;;;2.25;;
74335;SDS011;62755;-33.398;-70.572;2023-03-23T06:34:05;14.98;;;2.42;;
74335;SDS011;62755;-33.398;-70.572;2023-03-23T06:36:54;7.75;;;2.25;;
74335;SDS011;62755;-33.398;-70.572;2023-03-23T06:39:43;13.43;;;2.45;;
74335;SDS011;62755;-33.398;-70.572;2023-03-23T06:42:34;13.63;;;2.53;;
74335;SDS011;62755;-33.398;-70.572;2023-03-23T06:45:23;22.27;;;3.15;;
74335;SDS011;62755;-33.398;-70.572;2023-03-23T06:48:13;14.82;;;2.47;;
74335;SDS011;62755;-33.398;-70.572;2023-03-23T06:51:04;12.43;;;2.50;;
74335;SDS011;62755;-33.398;-70.572;2023-03-23T06:53:54;10.35;;;2.53;;
74335;SDS011;62755;-33.398;-70.572;2023-03-23T06:56:44;7.57;;;2.08;;
74335;SDS011;62755;-33.398;-70.572;2023-03-23T06:59:33;7.35;;;2.60;;
74335;SDS011;62755;-33.398;-70.572;2023-03-23T07:02:22;9.65;;;2.42;;
74335;SDS011;62755;-33.398;-70.572;2023-03-23T07:05:12;7.88;;;2.70;;
74335;SDS011;62755;-33.398;-70.572;2023-03-23T07:08:04;19.55;;;2.55;;
74335;SDS011;62755;-33.398;-70.572;2023-03-23T07:10:53;14.57;;;3.78;;
74335;SDS011;62755;-33.398;-70.572;2023-03-23T07:13:43;10.70;;;2.78;;
74335;SDS011;62755;-33.398;-70.572;2023-03-23T07:16:32;16.33;;;2.72;;
74335;SDS011;62755;-33.398;-70.572;2023-03-23T07:19:22;12.23;;;2.92;;
74335;SDS011;62755;-33.398;-70.572;2023-03-23T07:22:11;10.90;;;2.63;;
74335;SDS011;62755;-33.398;-70.572;2023-03-23T07:25:03;10.60;;;2.60;;
74335;SDS011;62755;-33.398;-70.572;2023-03-23T07:27:52;12.77;;;2.97;;
74335;SDS011;62755;-33.398;-70.572;2023-03-23T07:30:42;10.70;;;2.90;;
74335;SDS011;62755;-33.398;-70.572;2023-03-23T07:33:31;13.15;;;3.10;;
74335;SDS011;62755;-33.398;-70.572;2023-03-23T07:36:21;13.80;;;3.67;;
74335;SDS011;62755;-33.398;-70.572;2023-03-23T07:39:10;21.15;;;3.40;;
74335;SDS011;62755;-33.398;-70.572;2023-03-23T07:42:02;12.85;;;2.92;;
74335;SDS011;62755;-33.398;-70.572;2023-03-23T07:44:53;15.13;;;3.42;;
74335;SDS011;62755;-33.398;-70.572;2023-03-23T07:47:42;19.40;;;3.40;;
74335;SDS011;62755;-33.398;-70.572;2023-03-23T07:50:31;19.45;;;3.45;;
74335;SDS011;62755;-33.398;-70.572;2023-03-23T07:53:22;14.93;;;2.65;;
74335;SDS011;62755;-33.398;-70.572;2023-03-23T07:56:12;14.57;;;2.67;;
74335;SDS011;62755;-33.398;-70.572;2023-03-23T07:59:06;11.57;;;2.80;;
74335;SDS011;62755;-33.398;-70.572;2023-03-23T08:01:57;18.05;;;2.67;;
74335;SDS011;62755;-33.398;-70.572;2023-03-23T08:04:46;16.02;;;2.80;;
74335;SDS011;62755;-33.398;-70.572;2023-03-23T08:07:36;15.68;;;2.33;;
74335;SDS011;62755;-33.398;-70.572;2023-03-23T08:10:25;10.10;;;2.58;;
74335;SDS011;62755;-33.398;-70.572;2023-03-23T08:13:15;12.38;;;2.60;;
74335;SDS011;62755;-33.398;-70.572;2023-03-23T08:16:07;7.68;;;2.17;;
74335;SDS011;62755;-33.398;-70.572;2023-03-23T08:18:57;12.05;;;2.22;;
74335;SDS011;62755;-33.398;-70.572;2023-03-23T08:21:46;9.20;;;2.70;;
74335;SDS011;62755;-33.398;-70.572;2023-03-23T08:24:35;7.78;;;2.05;;
74335;SDS011;62755;-33.398;-70.572;2023-03-23T08:27:25;13.15;;;2.80;;
74335;SDS011;62755;-33.398;-70.572;2023-03-23T08:30:15;21.10;;;2.60;;
74335;SDS011;62755;-33.398;-70.572;2023-03-23T08:33:08;11.05;;;2.80;;
74335;SDS011;62755;-33.398;-70.572;2023-03-23T08:35:58;9.38;;;2.15;;
74335;SDS011;62755;-33.398;-70.572;2023-03-23T08:38:48;16.95;;;2.47;;
74335;SDS011;62755;-33.398;-70.572;2023-03-23T08:41:39;8.93;;;2.40;;
74335;SDS011;62755;-33.398;-70.572;2023-03-23T08:44:29;11.90;;;2.63;;
74335;SDS011;62755;-33.398;-70.572;2023-03-23T08:47:19;12.63;;;2.78;;
74335;SDS011;62755;-33.398;-70.572;2023-03-23T08:50:11;17.95;;;3.20;;
74335;SDS011;62755;-33.398;-70.572;2023-03-23T08:53:02;8.43;;;2.45;;
74335;SDS011;62755;-33.398;-70.572;2023-03-23T08:55:51;8.30;;;2.47;;
74335;SDS011;62755;-33.398;-70.572;2023-03-23T08:58:41;23.77;;;2.75;;
74335;SDS011;62755;-33.398;-70.572;2023-03-23T09:01:31;10.25;;;2.45;;
74335;SDS011;62755;-33.398;-70.572;2023-03-23T09:04:20;11.75;;;2.40;;
74335;SDS011;62755;-33.398;-70.572;2023-03-23T09:07:12;13.40;;;2.38;;
74335;SDS011;62755;-33.398;-70.572;2023-03-23T09:10:01;17.52;;;3.05;;
74335;SDS011;62755;-33.398;-70.572;2023-03-23T09:12:51;12.23;;;2.80;;
74335;SDS011;62755;-33.398;-70.572;2023-03-23T09:15:42;11.50;;;2.47;;
74335;SDS011;62755;-33.398;-70.572;2023-03-23T09:18:32;11.82;;;2.60;;
74335;SDS011;62755;-33.398;-70.572;2023-03-23T09:21:21;5.45;;;2.22;;
74335;SDS011;62755;-33.398;-70.572;2023-03-23T09:24:13;6.75;;;2.30;;
74335;SDS011;62755;-33.398;-70.572;2023-03-23T09:27:03;9.48;;;2.13;;
74335;SDS011;62755;-33.398;-70.572;2023-03-23T09:29:52;10.60;;;2.08;;
74335;SDS011;62755;-33.398;-70.572;2023-03-23T09:32:42;15.18;;;1.92;;
74335;SDS011;62755;-33.398;-70.572;2023-03-23T09:35:31;11.80;;;2.60;;
74335;SDS011;62755;-33.398;-70.572;2023-03-23T09:38:22;7.30;;;2.08;;
74335;SDS011;62755;-33.398;-70.572;2023-03-23T09:41:16;18.23;;;2.47;;
74335;SDS011;62755;-33.398;-70.572;2023-03-23T09:44:17;11.23;;;2.22;;
74335;SDS011;62755;-33.398;-70.572;2023-03-23T09:47:14;9.63;;;2.13;;
74335;SDS011;62755;-33.398;-70.572;2023-03-23T09:50:10;14.07;;;2.40;;
74335;SDS011;62755;-33.398;-70.572;2023-03-23T09:53:03;14.65;;;2.92;;
74335;SDS011;62755;-33.398;-70.572;2023-03-23T09:55:58;21.38;;;3.05;;
74335;SDS011;62755;-33.398;-70.572;2023-03-23T09:58:50;9.30;;;2.55;;
74335;SDS011;62755;-33.398;-70.572;2023-03-23T10:01:44;21.77;;;3.15;;
74335;SDS011;62755;-33.398;-70.572;2023-03-23T10:04:36;19.95;;;2.90;;
74335;SDS011;62755;-33.398;-70.572;2023-03-23T10:07:29;16.55;;;4.20;;
74335;SDS011;62755;-33.398;-70.572;2023-03-23T10:10:19;12.13;;;3.15;;
74335;SDS011;62755;-33.398;-70.572;2023-03-23T10:13:13;19.73;;;3.28;;
74335;SDS011;62755;-33.398;-70.572;2023-03-23T10:16:10;24.50;;;4.07;;
74335;SDS011;62755;-33.398;-70.572;2023-03-23T10:19:03;14.88;;;4.53;;
74335;SDS011;62755;-33.398;-70.572;2023-03-23T10:22:03;19.02;;;4.40;;
74335;SDS011;62755;-33.398;-70.572;2023-03-23T10:24:59;18.10;;;3.80;;
74335;SDS011;62755;-33.398;-70.572;2023-03-23T10:27:58;15.48;;;4.25;;
74335;SDS011;62755;-33.398;-70.572;2023-03-23T10:30:53;18.80;;;4.18;;
74335;SDS011;62755;-33.398;-70.572;2023-03-23T10:33:47;14.52;;;3.83;;
74335;SDS011;62755;-33.398;-70.572;2023-03-23T10:36:40;19.85;;;4.47;;
74335;SDS011;62755;-33.398;-70.572;2023-03-23T10:39:44;15.40;;;4.40;;
74335;SDS011;62755;-33.398;-70.572;2023-03-23T10:42:37;20.95;;;4.18;;
74335;SDS011;62755;-33.398;-70.572;2023-03-23T10:45:28;29.70;;;6.05;;
74335;SDS011;62755;-33.398;-70.572;2023-03-23T10:48:21;24.75;;;5.05;;
74335;SDS011;62755;-33.398;-70.572;2023-03-23T10:51:18;19.40;;;3.85;;
74335;SDS011;62755;-33.398;-70.572;2023-03-23T10:54:10;13.07;;;3.28;;
74335;SDS011;62755;-33.398;-70.572;2023-03-23T10:57:00;16.02;;;4.15;;
74335;SDS011;62755;-33.398;-70.572;2023-03-23T11:00:05;24.73;;;5.50;;
74335;SDS011;62755;-33.398;-70.572;2023-03-23T11:03:00;21.73;;;3.97;;
74335;SDS011;62755;-33.398;-70.572;2023-03-23T11:05:52;24.40;;;4.37;;
74335;SDS011;62755;-33.398;-70.572;2023-03-23T11:08:51;18.73;;;4.07;;
74335;SDS011;62755;-33.398;-70.572;2023-03-23T11:11:43;20.33;;;5.00;;
74335;SDS011;62755;-33.398;-70.572;2023-03-23T11:14:38;26.48;;;4.18;;
74335;SDS011;62755;-33.398;-70.572;2023-03-23T11:17:28;17.73;;;4.30;;
74335;SDS011;62755;-33.398;-70.572;2023-03-23T11:20:19;25.65;;;5.90;;
74335;SDS011;62755;-33.398;-70.572;2023-03-23T11:23:15;27.27;;;6.03;;
74335;SDS011;62755;-33.398;-70.572;2023-03-23T11:26:12;17.15;;;4.05;;
74335;SDS011;62755;-33.398;-70.572;2023-03-23T11:29:04;16.13;;;3.55;;
74335;SDS011;62755;-33.398;-70.572;2023-03-23T11:32:02;25.30;;;3.92;;
74335;SDS011;62755;-33.398;-70.572;2023-03-23T11:34:54;11.63;;;3.53;;
74335;SDS011;62755;-33.398;-70.572;2023-03-23T11:37:46;14.00;;;3.35;;
74335;SDS011;62755;-33.398;-70.572;2023-03-23T11:40:43;26.10;;;4.63;;
74335;SDS011;62755;-33.398;-70.572;2023-03-23T11:43:43;21.70;;;4.25;;
74335;SDS011;62755;-33.398;-70.572;2023-03-23T11:46:35;20.98;;;3.90;;
74335;SDS011;62755;-33.398;-70.572;2023-03-23T11:49:35;20.98;;;4.15;;
74335;SDS011;62755;-33.398;-70.572;2023-03-23T11:52:35;21.38;;;4.30;;
74335;SDS011;62755;-33.398;-70.572;2023-03-23T11:55:32;27.25;;;4.75;;
74335;SDS011;62755;-33.398;-70.572;2023-03-23T11:58:25;24.10;;;4.37;;
74335;SDS011;62755;-33.398;-70.572;2023-03-23T12:01:24;22.13;;;5.50;;
74335;SDS011;62755;-33.398;-70.572;2023-03-23T12:04:37;28.55;;;5.13;;
74335;SDS011;62755;-33.398;-70.572;2023-03-23T12:07:41;32.88;;;6.03;;
74335;SDS011;62755;-33.398;-70.572;2023-03-23T12:10:40;30.88;;;4.70;;
74335;SDS011;62755;-33.398;-70.572;2023-03-23T12:13:40;37.40;;;5.07;;
74335;SDS011;62755;-33.398;-70.572;2023-03-23T12:16:49;26.15;;;4.97;;
74335;SDS011;62755;-33.398;-70.572;2023-03-23T12:19:51;26.25;;;5.90;;
74335;SDS011;62755;-33.398;-70.572;2023-03-23T12:22:58;23.42;;;5.25;;
74335;SDS011;62755;-33.398;-70.572;2023-03-23T12:26:07;39.13;;;5.40;;
74335;SDS011;62755;-33.398;-70.572;2023-03-23T12:29:11;34.80;;;5.50;;
74335;SDS011;62755;-33.398;-70.572;2023-03-23T12:35:33;26.10;;;4.82;;
74335;SDS011;62755;-33.398;-70.572;2023-03-23T12:41:44;28.50;;;5.25;;
74335;SDS011;62755;-33.398;-70.572;2023-03-23T12:44:41;33.47;;;5.63;;
74335;SDS011;62755;-33.398;-70.572;2023-03-23T12:47:36;38.45;;;5.88;;
74335;SDS011;62755;-33.398;-70.572;2023-03-23T12:50:32;36.10;;;5.13;;
74335;SDS011;62755;-33.398;-70.572;2023-03-23T12:53:27;46.27;;;5.23;;
74335;SDS011;62755;-33.398;-70.572;2023-03-23T12:56:21;53.53;;;7.40;;
74335;SDS011;62755;-33.398;-70.572;2023-03-23T12:59:16;24.70;;;4.68;;
74335;SDS011;62755;-33.398;-70.572;2023-03-23T13:02:12;30.52;;;4.63;;
74335;SDS011;62755;-33.398;-70.572;2023-03-23T13:05:11;32.55;;;5.28;;
74335;SDS011;62755;-33.398;-70.572;2023-03-23T13:08:16;18.45;;;3.92;;
74335;SDS011;62755;-33.398;-70.572;2023-03-23T13:11:10;22.58;;;4.78;;
74335;SDS011;62755;-33.398;-70.572;2023-03-23T13:14:08;22.55;;;3.78;;
74335;SDS011;62755;-33.398;-70.572;2023-03-23T13:17:07;19.75;;;4.82;;
74335;SDS011;62755;-33.398;-70.572;2023-03-23T13:20:15;32.60;;;4.47;;
74335;SDS011;62755;-33.398;-70.572;2023-03-23T13:23:18;31.75;;;4.90;;
74335;SDS011;62755;-33.398;-70.572;2023-03-23T13:26:09;22.23;;;3.95;;
74335;SDS011;62755;-33.398;-70.572;2023-03-23T13:29:05;22.73;;;4.35;;
74335;SDS011;62755;-33.398;-70.572;2023-03-23T13:32:06;15.30;;;3.40;;
74335;SDS011;62755;-33.398;-70.572;2023-03-23T13:35:01;23.00;;;3.22;;
74335;SDS011;62755;-33.398;-70.572;2023-03-23T13:37:54;14.20;;;2.97;;
74335;SDS011;62755;-33.398;-70.572;2023-03-23T13:40:44;11.15;;;3.05;;
74335;SDS011;62755;-33.398;-70.572;2023-03-23T13:43:34;26.80;;;3.97;;
74335;SDS011;62755;-33.398;-70.572;2023-03-23T13:46:26;11.52;;;3.63;;
74335;SDS011;62755;-33.398;-70.572;2023-03-23T13:49:19;16.73;;;3.67;;
74335;SDS011;62755;-33.398;-70.572;2023-03-23T13:52:15;19.52;;;4.03;;
74335;SDS011;62755;-33.398;-70.572;2023-03-23T13:55:29;24.65;;;4.20;;
74335;SDS011;62755;-33.398;-70.572;2023-03-23T13:58:27;17.30;;;3.80;;
74335;SDS011;62755;-33.398;-70.572;2023-03-23T14:01:17;27.17;;;4.40;;
74335;SDS011;62755;-33.398;-70.572;2023-03-23T14:04:21;24.13;;;4.97;;
74335;SDS011;62755;-33.398;-70.572;2023-03-23T14:07:18;17.02;;;4.68;;
74335;SDS011;62755;-33.398;-70.572;2023-03-23T14:10:14;14.20;;;3.40;;
74335;SDS011;62755;-33.398;-70.572;2023-03-23T14:13:10;20.15;;;3.78;;
74335;SDS011;62755;-33.398;-70.572;2023-03-23T14:16:05;14.05;;;3.85;;
74335;SDS011;62755;-33.398;-70.572;2023-03-23T14:19:04;14.07;;;3.95;;
74335;SDS011;62755;-33.398;-70.572;2023-03-23T14:22:03;24.42;;;4.05;;
74335;SDS011;62755;-33.398;-70.572;2023-03-23T14:24:53;21.48;;;4.50;;
74335;SDS011;62755;-33.398;-70.572;2023-03-23T14:27:51;22.95;;;3.60;;
74335;SDS011;62755;-33.398;-70.572;2023-03-23T14:30:43;17.38;;;4.70;;
74335;SDS011;62755;-33.398;-70.572;2023-03-23T14:33:33;13.57;;;3.85;;
74335;SDS011;62755;-33.398;-70.572;2023-03-23T14:36:22;16.95;;;3.97;;
74335;SDS011;62755;-33.398;-70.572;2023-03-23T14:39:16;15.65;;;3.85;;
74335;SDS011;62755;-33.398;-70.572;2023-03-23T14:42:10;17.13;;;4.00;;
74335;SDS011;62755;-33.398;-70.572;2023-03-23T14:45:03;10.30;;;4.03;;
74335;SDS011;62755;-33.398;-70.572;2023-03-23T14:47:56;13.77;;;4.13;;
74335;SDS011;62755;-33.398;-70.572;2023-03-23T14:50:51;27.00;;;4.90;;
74335;SDS011;62755;-33.398;-70.572;2023-03-23T14:53:43;17.23;;;3.92;;
74335;SDS011;62755;-33.398;-70.572;2023-03-23T14:56:34;17.80;;;4.38;;
74335;SDS011;62755;-33.398;-70.572;2023-03-23T14:59:24;16.15;;;3.97;;
74335;SDS011;62755;-33.398;-70.572;2023-03-23T15:02:14;19.88;;;4.57;;
74335;SDS011;62755;-33.398;-70.572;2023-03-23T15:05:11;32.13;;;5.00;;
74335;SDS011;62755;-33.398;-70.572;2023-03-23T15:08:03;19.35;;;5.22;;
74335;SDS011;62755;-33.398;-70.572;2023-03-23T15:10:55;21.25;;;5.30;;
74335;SDS011;62755;-33.398;-70.572;2023-03-23T15:13:50;23.00;;;5.15;;
74335;SDS011;62755;-33.398;-70.572;2023-03-23T15:16:45;25.25;;;5.90;;
74335;SDS011;62755;-33.398;-70.572;2023-03-23T15:19:39;24.55;;;5.80;;
74335;SDS011;62755;-33.398;-70.572;2023-03-23T15:22:32;18.50;;;5.65;;
74335;SDS011;62755;-33.398;-70.572;2023-03-23T15:25:22;26.20;;;6.53;;
74335;SDS011;62755;-33.398;-70.572;2023-03-23T15:28:18;19.00;;;6.37;;
74335;SDS011;62755;-33.398;-70.572;2023-03-23T15:31:08;16.13;;;6.53;;
74335;SDS011;62755;-33.398;-70.572;2023-03-23T15:33:59;27.77;;;6.35;;
74335;SDS011;62755;-33.398;-70.572;2023-03-23T15:36:54;23.50;;;5.63;;
74335;SDS011;62755;-33.398;-70.572;2023-03-23T15:39:47;18.90;;;5.55;;
74335;SDS011;62755;-33.398;-70.572;2023-03-23T15:42:38;26.13;;;5.97;;
74335;SDS011;62755;-33.398;-70.572;2023-03-23T15:45:27;30.30;;;6.60;;
74335;SDS011;62755;-33.398;-70.572;2023-03-23T15:48:17;17.17;;;5.05;;
74335;SDS011;62755;-33.398;-70.572;2023-03-23T15:51:07;19.52;;;5.30;;
74335;SDS011;62755;-33.398;-70.572;2023-03-23T15:53:56;20.80;;;5.85;;
74335;SDS011;62755;-33.398;-70.572;2023-03-23T15:56:48;25.33;;;5.47;;
74335;SDS011;62755;-33.398;-70.572;2023-03-23T15:59:37;22.02;;;5.65;;
74335;SDS011;62755;-33.398;-70.572;2023-03-23T16:02:26;15.63;;;5.05;;
74335;SDS011;62755;-33.398;-70.572;2023-03-23T16:05:16;19.88;;;5.10;;
74335;SDS011;62755;-33.398;-70.572;2023-03-23T16:08:07;21.13;;;5.30;;
74335;SDS011;62755;-33.398;-70.572;2023-03-23T16:10:58;19.02;;;4.85;;
74335;SDS011;62755;-33.398;-70.572;2023-03-23T16:13:49;12.95;;;4.53;;
74335;SDS011;62755;-33.398;-70.572;2023-03-23T16:16:40;18.50;;;4.45;;
74335;SDS011;62755;-33.398;-70.572;2023-03-23T16:19:31;12.25;;;4.13;;
74335;SDS011;62755;-33.398;-70.572;2023-03-23T16:22:21;24.60;;;5.13;;
74335;SDS011;62755;-33.398;-70.572;2023-03-23T16:25:10;23.17;;;5.72;;
74335;SDS011;62755;-33.398;-70.572;2023-03-23T16:28:00;14.93;;;5.28;;
74335;SDS011;62755;-33.398;-70.572;2023-03-23T16:30:51;18.00;;;5.13;;
74335;SDS011;62755;-33.398;-70.572;2023-03-23T16:33:40;16.38;;;5.85;;